Terminal Aerodrome Forecast
Issued by NWS

Home | Current Version | Previous Version | Text Only | Print | Product List | Glossary On
Versions: 1 2 3 4 5 6 7 8 9 10 11 12 13 14 15 16 17 18 19 20 21 22 23 24 25 26 27
478
FTUS42 KCAE 291140
TAFCUB
TAF
KCUB 291140Z 2912/3012 35007KT 5SM -SHRA BR SCT015 BKN025 OVC035
      WS010/36025KT
      TEMPO 2912/2915 3SM SHRA BR SCT007 OVC015
     FM291600 35010G16KT 5SM -SHRA BR OVC020
     FM300300 36008KT 4SM -SHRA BR OVC012=

USA.gov is the U.S. government's official web portal to all federal, state and local government web resources and services.